Time;durP1;ratioP1;P1;durP2;ratioP2;P2;SDS_P1;SDS_P2;PMS_P1;PMS_P2;Temp;Humidity;BMP_temperature;BMP_pressure;BME280_temperature;BME280_humidity;BME280_pressure;Samples;Min_cycle;Max_cycle;Signal;HPM_P1;HPM_P2
2021/12/17 00:05:01;;;;;;;20.35;9.30;;;3.30;99.90;;;;;;5049794;28;20029;-75
2021/12/17 00:07:28;;;;;;;21.63;9.40;;;3.30;99.90;;;;;;5049127;28;20423;-75
2021/12/17 00:09:56;;;;;;;24.80;11.45;;;3.20;99.90;;;;;;5048716;28;20056;-75
2021/12/17 00:12:26;;;;;;;20.48;9.85;;;3.20;99.90;;;;;;5049070;28;20463;-75
2021/12/17 00:14:52;;;;;;;21.77;9.90;;;3.30;99.90;;;;;;5039949;28;20071;-75
2021/12/17 00:17:27;;;;;;;18.63;10.05;;;3.20;99.90;;;;;;5031519;28;20030;-75
2021/12/17 00:49:59;;;;;;;17.00;8.02;;;3.10;99.90;;;;;;5032664;28;20132;-75
2021/12/17 00:52:28;;;;;;;22.00;8.65;;;3.10;99.90;;;;;;5032368;28;20105;-75
2021/12/17 00:54:53;;;;;;;20.60;10.43;;;3.00;99.90;;;;;;5031031;28;20030;-75
2021/12/17 00:57:34;;;;;;;18.30;9.95;;;3.00;99.90;;;;;;5032268;28;20030;-77
2021/12/17 00:59:59;;;;;;;13.65;7.95;;;3.00;99.90;;;;;;5032160;28;20033;-77
2021/12/17 01:02:30;;;;;;;18.83;8.38;;;3.00;99.90;;;;;;5032053;28;20022;-77
2021/12/17 01:05:03;;;;;;;19.38;9.40;;;3.00;99.90;;;;;;5032166;28;20032;-76
2021/12/17 01:07:33;;;;;;;15.45;8.50;;;3.00;99.90;;;;;;5030774;28;20029;-77
2021/12/17 01:10:00;;;;;;;22.50;9.13;;;3.00;99.90;;;;;;5031020;28;20040;-76
2021/12/17 01:12:26;;;;;;;19.35;8.68;;;3.00;99.90;;;;;;5031959;28;20025;-76
2021/12/17 01:14:53;;;;;;;13.68;8.52;;;3.00;99.90;;;;;;5030718;28;20025;-77
2021/12/17 01:17:21;;;;;;;19.55;8.70;;;3.00;99.90;;;;;;5031850;28;20475;-77
2021/12/17 01:25:11;;;;;;;18.98;9.20;;;3.00;99.90;;;;;;5031150;28;20083;-77
2021/12/17 01:35:49;;;;;;;21.52;10.48;;;3.00;99.90;;;;;;5071671;28;20078;-77
2021/12/17 01:41:43;;;;;;;15.25;7.95;;;3.00;99.90;;;;;;5071610;28;20089;-77
2021/12/17 01:44:00;;;;;;;19.25;8.75;;;3.00;99.90;;;;;;5071264;27;20089;-77
2021/12/17 01:46:31;;;;;;;16.60;8.23;;;3.00;99.90;;;;;;5071011;28;20093;-77
2021/12/17 02:00:08;;;;;;;16.40;8.27;;;3.00;99.90;;;;;;5071215;28;20167;-77
2021/12/17 02:02:40;;;;;;;;;;;3.00;99.90;;;;;;5071552;28;20027;-77
2021/12/17 02:05:07;;;;;;;19.85;7.93;;;3.00;99.90;;;;;;5071184;28;19904;-77
2021/12/17 02:07:33;;;;;;;18.92;8.52;;;3.00;99.90;;;;;;5071166;28;20125;-77
2021/12/17 02:28:44;;;;;;;20.23;8.45;;;3.00;99.90;;;;;;5055132;28;20032;-76
2021/12/17 02:29:12;;;;;;;19.70;8.68;;;3.00;99.90;;;;;;5070597;28;20500;-77
2021/12/17 02:31:38;;;;;;;18.02;8.75;;;3.00;99.90;;;;;;5070663;28;20027;-77
2021/12/17 02:34:38;;;;;;;27.30;10.18;;;2.90;99.90;;;;;;5070558;28;20028;-77
2021/12/17 02:37:07;;;;;;;19.13;8.77;;;3.00;99.90;;;;;;5069687;28;20426;-77
2021/12/17 02:48:13;;;;;;;21.60;10.82;;;2.90;99.90;;;;;;5070727;28;20186;-77
2021/12/17 02:50:51;;;;;;;15.73;8.32;;;2.90;99.90;;;;;;5070242;28;20115;-77
2021/12/17 02:53:19;;;;;;;23.73;9.20;;;2.90;99.90;;;;;;5069053;28;20385;-77
2021/12/17 02:55:50;;;;;;;18.50;8.02;;;2.90;99.90;;;;;;5070317;28;20024;-76
2021/12/17 02:58:17;;;;;;;17.25;8.45;;;2.90;99.90;;;;;;5070201;28;20025;-76
2021/12/17 03:00:44;;;;;;;18.35;9.25;;;2.90;99.90;;;;;;5068959;27;20016;-77
2021/12/17 03:03:11;;;;;;;15.90;9.27;;;2.90;99.90;;;;;;5069997;28;20025;-76
2021/12/17 03:05:39;;;;;;;18.63;9.02;;;2.90;99.90;;;;;;5068249;28;20029;-76
2021/12/17 03:08:07;;;;;;;23.42;10.25;;;2.90;99.90;;;;;;5069904;28;20448;-77
2021/12/17 03:10:33;;;;;;;24.23;10.13;;;2.90;99.90;;;;;;5069880;28;20031;-76
2021/12/17 03:13:02;;;;;;;19.58;10.27;;;2.90;99.90;;;;;;5068401;28;20441;-76
2021/12/17 03:15:37;;;;;;;23.33;10.30;;;2.80;99.90;;;;;;5068672;27;20021;-76
2021/12/17 03:23:28;;;;;;;28.95;10.48;;;2.80;99.90;;;;;;5068189;28;20116;-76
2021/12/17 03:25:54;;;;;;;25.23;9.02;;;2.90;99.90;;;;;;5067793;28;20013;-76
2021/12/17 03:28:20;;;;;;;20.63;10.20;;;2.80;99.90;;;;;;5067754;28;20017;-76
2021/12/17 03:30:46;;;;;;;16.67;9.90;;;2.80;99.90;;;;;;5066323;28;20025;-76
2021/12/17 03:33:12;;;;;;;16.52;8.40;;;2.80;99.90;;;;;;5067730;28;20111;-76
2021/12/17 03:35:38;;;;;;;17.23;8.45;;;2.80;99.90;;;;;;5067592;28;20096;-76
2021/12/17 03:38:04;;;;;;;26.42;11.75;;;2.80;99.90;;;;;;5069458;28;20438;-76
2021/12/17 03:40:32;;;;;;;19.77;9.75;;;2.90;99.90;;;;;;5069228;28;20024;-76
2021/12/17 03:43:11;;;;;;;17.90;9.80;;;2.90;99.90;;;;;;5069518;28;20021;-76
2021/12/17 03:45:36;;;;;;;21.38;9.70;;;2.90;99.90;;;;;;5069621;28;20025;-76
2021/12/17 03:48:02;;;;;;;16.92;8.35;;;2.80;99.90;;;;;;5070848;28;20108;-77
2021/12/17 03:50:33;;;;;;;21.45;10.20;;;2.80;99.90;;;;;;5073080;28;20027;-76
2021/12/17 03:52:59;;;;;;;18.95;9.43;;;2.80;99.90;;;;;;5073306;28;20027;-76
2021/12/17 03:55:24;;;;;;;18.52;9.77;;;2.80;99.90;;;;;;5071842;28;20021;-76
2021/12/17 03:57:50;;;;;;;21.33;9.57;;;2.80;99.90;;;;;;5071909;28;20076;-76
2021/12/17 04:00:16;;;;;;;19.00;8.25;;;2.80;99.90;;;;;;5071516;28;20064;-77
2021/12/17 04:02:42;;;;;;;19.77;8.45;;;2.80;99.90;;;;;;5073055;28;20016;-76
2021/12/17 04:05:07;;;;;;;16.08;8.55;;;2.80;99.90;;;;;;5072942;28;20017;-76
2021/12/17 04:07:34;;;;;;;21.27;8.23;;;2.80;99.90;;;;;;5072984;28;20024;-76
2021/12/17 04:09:59;;;;;;;18.27;7.70;;;2.80;99.90;;;;;;5072935;28;20441;-77
2021/12/17 04:12:40;;;;;;;21.08;9.57;;;2.80;99.90;;;;;;5071578;28;20036;-76
2021/12/17 04:15:06;;;;;;;16.13;8.45;;;2.80;99.90;;;;;;5072892;28;20157;-76
2021/12/17 04:17:41;;;;;;;15.15;8.23;;;2.80;99.90;;;;;;5072821;28;20455;-77
2021/12/17 04:20:07;;;;;;;18.17;9.07;;;2.80;99.90;;;;;;5071496;28;20033;-76
2021/12/17 04:22:33;;;;;;;22.67;8.88;;;2.80;99.90;;;;;;5070655;28;20023;-76
2021/12/17 04:24:58;;;;;;;15.27;8.27;;;2.80;99.90;;;;;;5052640;28;20025;-77
2021/12/17 04:27:24;;;;;;;16.13;8.70;;;2.80;99.90;;;;;;5052375;28;20029;-76
2021/12/17 04:29:51;;;;;;;15.68;8.35;;;2.80;99.90;;;;;;5051349;28;20081;-76
2021/12/17 04:32:17;;;;;;;11.98;9.32;;;2.80;99.90;;;;;;5051287;28;20077;-76
2021/12/17 04:34:42;;;;;;;22.50;10.13;;;2.80;99.90;;;;;;5052130;28;20029;-76
2021/12/17 04:37:08;;;;;;;35.15;16.67;;;2.70;99.90;;;;;;5052288;28;20017;-76
2021/12/17 04:39:34;;;;;;;78.68;32.92;;;2.70;99.90;;;;;;5063567;28;20393;-76
2021/12/17 04:42:13;;;;;;;55.50;26.25;;;2.70;99.90;;;;;;5058806;28;20386;-77
2021/12/17 04:44:47;;;;;;;211.30;96.28;;;2.70;99.90;;;;;;5052510;28;20036;-76
2021/12/17 04:57:48;;;;;;;32.70;18.30;;;2.70;99.90;;;;;;5052238;28;20043;-77
2021/12/17 05:00:20;;;;;;;21.77;11.25;;;2.70;99.90;;;;;;5051288;28;20033;-77
2021/12/17 05:02:50;;;;;;;25.33;14.02;;;2.70;99.90;;;;;;5051988;28;20029;-76
2021/12/17 05:05:18;;;;;;;20.45;12.38;;;2.60;99.90;;;;;;5050418;28;20029;-76
2021/12/17 05:07:48;;;;;;;30.13;15.30;;;2.60;99.90;;;;;;5050822;28;20048;-76
2021/12/17 05:18:32;;;;;;;15.02;9.60;;;2.60;99.90;;;;;;5052111;28;20124;-76
2021/12/17 05:21:02;;;;;;;23.08;11.52;;;2.60;99.90;;;;;;5050831;28;20036;-76
2021/12/17 05:23:32;;;;;;;15.70;10.18;;;2.60;99.90;;;;;;5038135;28;20108;-76
2021/12/17 05:26:00;;;;;;;20.13;9.68;;;2.60;99.90;;;;;;5030518;28;20022;-76
2021/12/17 05:28:26;;;;;;;21.10;10.45;;;2.60;99.90;;;;;;5032906;28;20029;-77
2021/12/17 05:30:54;;;;;;;28.42;12.15;;;2.60;99.90;;;;;;5051759;28;20077;-76
2021/12/17 05:33:22;;;;;;;18.50;8.85;;;2.50;99.90;;;;;;5050353;28;20014;-77
2021/12/17 05:35:48;;;;;;;10.98;7.25;;;2.50;99.90;;;;;;5051549;28;20029;-76
2021/12/17 05:38:15;;;;;;;19.70;10.27;;;2.50;99.90;;;;;;5051549;28;20119;-77
2021/12/17 05:40:42;;;;;;;18.63;8.07;;;2.50;99.90;;;;;;5035423;28;20482;-77
2021/12/17 05:43:08;;;;;;;20.38;11.43;;;2.50;99.90;;;;;;5028633;28;20041;-76
2021/12/17 05:45:47;;;;;;;20.98;9.38;;;2.50;99.90;;;;;;5040275;28;20069;-76
2021/12/17 05:48:15;;;;;;;15.52;7.57;;;2.50;99.90;;;;;;5050542;28;20021;-76
2021/12/17 05:50:42;;;;;;;19.60;9.65;;;2.50;99.90;;;;;;5049107;28;20021;-76
2021/12/17 05:53:09;;;;;;;14.48;7.43;;;2.50;99.90;;;;;;5049040;28;20057;-77
2021/12/17 05:55:35;;;;;;;13.85;7.82;;;2.40;99.90;;;;;;5047648;28;20025;-77
2021/12/17 05:58:05;;;;;;;11.60;7.78;;;2.40;99.90;;;;;;5046713;28;20073;-77
2021/12/17 06:00:32;;;;;;;15.25;7.75;;;2.40;99.90;;;;;;5046877;28;20121;-76
2021/12/17 06:02:59;;;;;;;17.92;8.38;;;2.40;99.90;;;;;;5047639;28;20032;-76
2021/12/17 06:05:26;;;;;;;19.05;9.98;;;2.50;99.90;;;;;;5048135;28;20076;-76
2021/12/17 06:07:51;;;;;;;17.48;7.90;;;2.50;99.90;;;;;;5049885;28;20029;-77
2021/12/17 06:10:17;;;;;;;12.85;7.22;;;2.50;99.90;;;;;;5049713;28;20509;-76
2021/12/17 06:12:43;;;;;;;19.30;9.25;;;2.40;99.90;;;;;;5048744;28;20025;-76
2021/12/17 06:15:14;;;;;;;16.52;7.55;;;2.40;99.90;;;;;;5049437;28;20025;-76
2021/12/17 06:17:40;;;;;;;16.70;7.53;;;2.40;99.90;;;;;;5050501;27;20112;-76
2021/12/17 06:20:08;;;;;;;17.58;8.13;;;2.40;99.90;;;;;;5028809;28;20065;-75
2021/12/17 06:22:33;;;;;;;19.83;7.70;;;2.40;99.90;;;;;;5028428;28;20022;-76
2021/12/17 06:24:59;;;;;;;12.85;7.90;;;2.40;99.90;;;;;;5028351;28;20517;-75
2021/12/17 06:27:25;;;;;;;22.85;9.27;;;2.40;99.90;;;;;;5028713;28;20013;-74
2021/12/17 06:29:52;;;;;;;20.52;8.05;;;2.40;99.90;;;;;;5029954;28;20086;-76
2021/12/17 06:32:19;;;;;;;19.67;7.57;;;2.40;99.90;;;;;;5028890;28;20022;-75
2021/12/17 06:34:46;;;;;;;17.30;8.18;;;2.40;99.90;;;;;;5028556;28;20075;-77
2021/12/17 06:37:11;;;;;;;16.52;7.50;;;2.40;99.90;;;;;;5031869;28;20190;-75
2021/12/17 06:39:37;;;;;;;19.98;7.40;;;2.40;99.90;;;;;;5038780;27;20124;-75
2021/12/17 06:42:04;;;;;;;18.38;7.53;;;2.40;99.90;;;;;;5029738;28;20137;-75
2021/12/17 06:44:31;;;;;;;14.35;7.75;;;2.40;99.90;;;;;;5038903;28;20036;-76
2021/12/17 06:47:08;;;;;;;19.90;9.23;;;2.40;99.90;;;;;;5050771;28;20112;-76
2021/12/17 07:10:48;;;;;;;15.15;8.30;;;2.40;99.90;;;;;;5050460;28;20040;-75
2021/12/17 07:30:25;;;;;;;28.65;10.07;;;2.30;99.90;;;;;;5048017;28;20048;-76
2021/12/17 07:39:56;;;;;;;20.10;8.93;;;2.40;99.90;;;;;;5033331;28;20033;-74
2021/12/17 07:42:22;;;;;;;23.13;10.43;;;2.40;99.90;;;;;;5028407;28;20029;-75
2021/12/17 07:44:48;;;;;;;16.67;9.27;;;2.40;99.90;;;;;;5031846;28;20059;-75
2021/12/17 07:47:14;;;;;;;21.58;8.90;;;2.40;99.90;;;;;;5036876;28;20049;-75
2021/12/17 07:49:39;;;;;;;18.48;7.57;;;2.40;99.90;;;;;;5038776;28;20017;-75
2021/12/17 07:52:05;;;;;;;18.48;7.63;;;2.50;99.90;;;;;;5039076;28;20112;-76
2021/12/17 07:54:30;;;;;;;21.25;8.20;;;2.50;99.90;;;;;;5036396;28;20498;-75
2021/12/17 07:56:56;;;;;;;19.88;7.82;;;2.50;99.90;;;;;;5039393;28;20437;-75
2021/12/17 07:59:22;;;;;;;17.63;7.18;;;2.50;99.90;;;;;;5033689;28;20029;-75
2021/12/17 08:01:47;;;;;;;17.80;7.43;;;2.50;99.90;;;;;;5038069;28;20022;-76
2021/12/17 08:04:13;;;;;;;17.15;6.10;;;2.50;99.90;;;;;;5036261;28;20017;-74
2021/12/17 08:06:39;;;;;;;17.77;6.88;;;2.60;99.90;;;;;;5032833;28;20024;-75
2021/12/17 08:09:05;;;;;;;12.50;6.53;;;2.60;99.90;;;;;;5032617;28;20013;-75
2021/12/17 08:11:37;;;;;;;15.45;7.00;;;2.60;99.90;;;;;;5034554;28;20464;-75
2021/12/17 08:14:06;;;;;;;19.65;6.80;;;2.60;99.90;;;;;;5034378;28;20040;-75
2021/12/17 08:16:41;;;;;;;20.42;6.63;;;2.60;99.90;;;;;;5035042;28;20021;-76
2021/12/17 08:26:57;;;;;;;18.08;7.03;;;2.70;99.90;;;;;;5034053;28;20021;-75
2021/12/17 08:29:32;;;;;;;15.43;7.43;;;2.70;99.90;;;;;;5030786;28;20379;-75
2021/12/17 08:32:05;;;;;;;21.40;7.93;;;2.70;99.90;;;;;;5034758;28;20032;-75
2021/12/17 08:34:32;;;;;;;15.07;6.70;;;2.70;99.90;;;;;;5079013;27;20060;-75
2021/12/17 08:36:58;;;;;;;17.00;6.40;;;2.80;99.90;;;;;;5035378;28;20088;-75
2021/12/17 08:39:25;;;;;;;13.60;7.97;;;2.80;99.90;;;;;;5035742;28;20492;-75
2021/12/17 08:41:53;;;;;;;16.42;7.35;;;2.80;99.90;;;;;;5038168;28;20073;-75
2021/12/17 08:44:19;;;;;;;10.98;6.18;;;2.80;99.90;;;;;;5039681;28;20548;-76
2021/12/17 08:46:44;;;;;;;20.08;7.00;;;2.80;99.90;;;;;;5038747;28;20025;-75
2021/12/17 08:49:10;;;;;;;12.98;6.50;;;2.90;99.90;;;;;;5036725;28;20473;-75
2021/12/17 08:51:37;;;;;;;15.80;7.28;;;2.90;99.90;;;;;;5036254;28;20017;-76
2021/12/17 08:54:04;;;;;;;17.02;6.10;;;3.00;99.90;;;;;;5036664;28;20111;-75
2021/12/17 08:56:31;;;;;;;16.98;6.90;;;3.00;99.90;;;;;;5039176;28;20025;-75
2021/12/17 08:59:01;;;;;;;12.85;6.85;;;3.00;99.90;;;;;;5038410;28;20042;-75
2021/12/17 09:01:27;;;;;;;19.15;7.50;;;3.00;99.90;;;;;;5037410;28;20025;-75
2021/12/17 09:03:52;;;;;;;23.27;8.55;;;3.00;99.90;;;;;;5035911;28;20022;-75
2021/12/17 09:06:18;;;;;;;19.23;6.88;;;3.00;99.90;;;;;;5037656;28;20096;-76
2021/12/17 09:08:43;;;;;;;18.38;6.78;;;3.00;99.90;;;;;;5035610;28;20032;-75
2021/12/17 09:11:09;;;;;;;21.75;8.73;;;3.00;99.90;;;;;;5037599;28;20036;-76
2021/12/17 09:13:35;;;;;;;12.90;6.57;;;3.10;99.90;;;;;;5038390;28;20355;-75
2021/12/17 09:16:06;;;;;;;11.85;6.13;;;3.10;99.90;;;;;;5039138;28;20021;-75
2021/12/17 09:18:33;;;;;;;14.43;7.13;;;3.00;99.90;;;;;;5031979;28;20022;-75
2021/12/17 09:20:59;;;;;;;17.90;8.40;;;3.00;99.90;;;;;;5031916;28;20078;-76
2021/12/17 09:23:24;;;;;;;15.30;6.78;;;3.10;99.90;;;;;;5031656;28;20025;-75
2021/12/17 09:25:50;;;;;;;18.33;7.32;;;3.10;99.90;;;;;;5037093;28;20029;-75
2021/12/17 09:28:16;;;;;;;13.65;7.93;;;3.10;99.90;;;;;;5036858;28;20024;-75
2021/12/17 09:30:42;;;;;;;17.27;8.50;;;3.10;99.90;;;;;;5036862;28;20030;-75
2021/12/17 09:33:08;;;;;;;17.17;7.32;;;3.10;99.90;;;;;;5034829;28;20017;-75
2021/12/17 09:35:34;;;;;;;15.02;8.02;;;3.10;99.90;;;;;;5033910;28;20034;-75
2021/12/17 09:37:59;;;;;;;20.20;7.57;;;3.10;99.90;;;;;;5035704;28;20020;-76
2021/12/17 09:40:25;;;;;;;19.05;7.28;;;3.10;99.90;;;;;;5036501;28;20045;-75
2021/12/17 09:42:51;;;;;;;21.48;8.55;;;3.10;99.90;;;;;;5037184;28;20093;-75
2021/12/17 09:45:18;;;;;;;14.75;7.38;;;3.10;99.90;;;;;;5034571;28;20036;-75
2021/12/17 09:47:44;;;;;;;20.08;8.63;;;3.10;99.90;;;;;;5031063;28;20018;-75
2021/12/17 09:50:12;;;;;;;15.13;7.63;;;3.20;99.90;;;;;;5040959;28;20025;-75
2021/12/17 09:52:37;;;;;;;17.45;7.65;;;3.10;99.90;;;;;;5035669;28;20045;-75
2021/12/17 09:55:05;;;;;;;19.83;9.25;;;3.10;99.90;;;;;;5035317;28;20079;-75
2021/12/17 09:57:35;;;;;;;20.77;8.35;;;3.20;99.90;;;;;;5036535;28;20017;-75
2021/12/17 10:00:15;;;;;;;12.90;7.97;;;3.10;99.90;;;;;;5035091;28;20033;-75
2021/12/17 10:02:46;;;;;;;20.55;9.23;;;3.10;99.90;;;;;;5035010;28;20073;-75
2021/12/17 10:05:29;;;;;;;26.50;8.43;;;3.20;99.90;;;;;;5038904;28;20409;-75
2021/12/17 10:07:58;;;;;;;20.23;9.00;;;3.20;99.90;;;;;;5037218;28;21862;-75
2021/12/17 10:10:40;;;;;;;16.58;8.68;;;3.20;99.90;;;;;;5035099;28;20030;-75
2021/12/17 10:13:24;;;;;;;18.30;7.95;;;3.10;99.90;;;;;;5034603;28;20057;-75
2021/12/17 10:15:55;;;;;;;15.05;8.68;;;3.10;99.90;;;;;;5033150;28;20033;-75
2021/12/17 10:18:41;;;;;;;18.00;8.88;;;3.20;99.90;;;;;;5029092;28;20049;-75
2021/12/17 10:21:09;;;;;;;16.95;9.30;;;3.20;99.90;;;;;;5034067;27;20014;-76
2021/12/17 10:23:36;;;;;;;21.92;8.95;;;3.20;99.90;;;;;;5033691;28;20021;-75
2021/12/17 10:26:03;;;;;;;20.00;9.02;;;3.20;99.90;;;;;;5035370;28;20035;-75
2021/12/17 10:28:30;;;;;;;18.45;9.00;;;3.20;99.90;;;;;;5032965;28;20025;-75
2021/12/17 10:30:56;;;;;;;24.75;9.90;;;3.10;99.90;;;;;;5035925;28;20061;-75
2021/12/17 10:33:25;;;;;;;21.50;10.43;;;3.10;99.90;;;;;;5036143;28;20031;-76
2021/12/17 10:35:53;;;;;;;12.80;7.90;;;3.10;99.90;;;;;;5034197;28;20385;-74
2021/12/17 10:38:23;;;;;;;15.35;8.63;;;3.10;99.90;;;;;;5035579;28;20020;-75
2021/12/17 10:40:54;;;;;;;22.90;9.80;;;3.10;99.90;;;;;;5035714;28;20022;-75
2021/12/17 10:50:52;;;;;;;22.17;10.35;;;3.00;99.90;;;;;;5037587;28;20036;-75
2021/12/17 10:53:22;;;;;;;21.83;12.48;;;3.10;99.90;;;;;;5037175;28;20537;-75
2021/12/17 10:55:48;;;;;;;17.77;10.25;;;3.00;99.90;;;;;;5035366;28;20462;-75
2021/12/17 10:58:14;;;;;;;16.65;10.15;;;3.00;99.90;;;;;;5034203;28;20020;-76
2021/12/17 11:01:01;;;;;;;22.08;11.23;;;3.00;99.90;;;;;;5031913;28;20126;-75
2021/12/17 11:03:27;;;;;;;18.58;10.95;;;3.10;99.90;;;;;;5039530;28;20111;-75
2021/12/17 11:05:53;;;;;;;20.05;9.80;;;3.00;99.90;;;;;;5029639;28;20104;-75
2021/12/17 11:08:28;;;;;;;21.30;10.77;;;3.00;99.90;;;;;;5030633;28;20482;-75
2021/12/17 11:10:58;;;;;;;21.25;9.70;;;2.90;99.90;;;;;;5033215;28;20017;-75
2021/12/17 11:13:24;;;;;;;21.05;10.07;;;2.90;99.90;;;;;;5048014;27;20487;-75
2021/12/17 11:15:52;;;;;;;22.85;10.05;;;2.80;99.90;;;;;;5050883;27;20038;-75
2021/12/17 11:18:18;;;;;;;16.88;9.00;;;2.80;99.90;;;;;;5048950;27;20056;-75
2021/12/17 11:20:44;;;;;;;23.30;12.02;;;2.90;99.90;;;;;;5049655;27;20029;-75
2021/12/17 11:23:13;;;;;;;27.33;11.57;;;2.80;99.90;;;;;;5053714;27;20020;-76
2021/12/17 11:25:42;;;;;;;27.98;12.88;;;2.80;99.90;;;;;;5052086;27;20074;-75
2021/12/17 11:28:10;;;;;;;29.25;14.52;;;2.80;99.90;;;;;;5049670;27;20022;-75
2021/12/17 11:30:39;;;;;;;54.72;24.52;;;2.80;99.90;;;;;;5052478;27;20669;-75
2021/12/17 11:33:05;;;;;;;40.88;20.70;;;2.90;99.90;;;;;;5052683;27;20017;-75
2021/12/17 11:35:34;;;;;;;52.88;24.58;;;2.90;99.90;;;;;;5052689;27;20025;-75
2021/12/17 11:38:12;;;;;;;36.20;17.08;;;2.90;99.90;;;;;;5058174;27;20013;-75
2021/12/17 11:40:56;;;;;;;54.80;28.17;;;2.90;99.90;;;;;;5057513;27;20034;-75
2021/12/17 11:43:29;;;;;;;54.83;25.38;;;2.90;99.90;;;;;;5050969;27;20502;-75
2021/12/17 11:46:06;;;;;;;34.08;18.35;;;2.90;99.90;;;;;;5042206;27;20121;-75
2021/12/17 11:48:34;;;;;;;44.45;27.48;;;2.90;99.90;;;;;;5043034;27;20116;-75
2021/12/17 11:51:09;;;;;;;26.80;15.25;;;2.80;99.90;;;;;;5044912;27;20014;-75
2021/12/17 11:53:52;;;;;;;17.30;10.98;;;2.80;99.90;;;;;;5041367;27;20108;-75
2021/12/17 11:56:40;;;;;;;16.23;9.98;;;2.80;99.90;;;;;;5040438;27;20056;-75
2021/12/17 11:59:08;;;;;;;22.75;12.02;;;2.80;99.90;;;;;;5038214;27;20029;-75
2021/12/17 12:02:15;;;;;;;20.80;12.30;;;2.70;99.90;;;;;;5040686;27;20104;-75
2021/12/17 12:04:42;;;;;;;21.50;13.15;;;2.80;99.90;;;;;;5055120;27;20028;-75
2021/12/17 12:07:32;;;;;;;16.88;10.90;;;2.70;99.90;;;;;;5050791;27;20017;-75
2021/12/17 12:10:11;;;;;;;17.25;9.65;;;2.70;99.90;;;;;;5041718;27;20033;-75
2021/12/17 12:12:46;;;;;;;20.20;10.68;;;2.70;99.90;;;;;;5035067;28;20116;-75
2021/12/17 12:15:21;;;;;;;27.42;11.02;;;2.70;99.90;;;;;;5038822;28;20025;-75
2021/12/17 12:18:03;;;;;;;23.02;12.07;;;2.70;99.90;;;;;;5037491;28;20021;-76
2021/12/17 12:20:50;;;;;;;24.88;11.73;;;2.70;99.90;;;;;;5041205;28;20123;-75
2021/12/17 12:23:32;;;;;;;18.98;10.35;;;2.70;99.90;;;;;;5032469;28;20029;-75
2021/12/17 12:26:04;;;;;;;22.00;10.70;;;2.60;99.90;;;;;;5041360;28;20017;-75
2021/12/17 12:28:44;;;;;;;21.07;9.57;;;2.70;99.90;;;;;;5038747;28;20523;-76
2021/12/17 12:31:32;;;;;;;18.15;10.30;;;2.70;99.90;;;;;;5069325;27;20026;-75
2021/12/17 12:34:00;;;;;;;24.60;10.52;;;2.70;99.90;;;;;;5033390;28;20060;-75
2021/12/17 12:36:44;;;;;;;22.00;11.50;;;2.70;99.90;;;;;;5033341;28;20033;-76
2021/12/17 12:39:21;;;;;;;20.13;10.80;;;2.80;99.90;;;;;;5038295;28;20084;-75
2021/12/17 12:42:05;;;;;;;21.23;12.27;;;2.80;99.90;;;;;;5038359;28;20013;-75
2021/12/17 12:44:40;;;;;;;23.42;13.18;;;2.80;99.90;;;;;;5045102;28;20039;-75
2021/12/17 12:47:07;;;;;;;33.90;13.63;;;2.80;99.90;;;;;;5035718;28;20379;-75
2021/12/17 12:49:43;;;;;;;22.85;12.18;;;2.80;99.90;;;;;;5031860;28;20029;-75
2021/12/17 12:52:29;;;;;;;25.27;12.40;;;2.80;99.90;;;;;;5039464;28;20535;-76
2021/12/17 12:55:02;;;;;;;15.90;9.82;;;2.80;99.90;;;;;;5041598;28;20095;-75
2021/12/17 12:57:44;;;;;;;19.05;9.50;;;2.80;99.90;;;;;;5035107;28;20600;-75
2021/12/17 13:00:38;;;;;;;24.17;11.63;;;2.80;99.90;;;;;;5040384;28;20040;-75
2021/12/17 13:03:10;;;;;;;20.42;10.50;;;2.80;99.90;;;;;;5037333;28;20021;-75
2021/12/17 13:05:36;;;;;;;17.75;9.57;;;2.80;99.90;;;;;;5035718;28;20439;-74
2021/12/17 13:08:05;;;;;;;21.60;10.65;;;2.80;99.90;;;;;;5038868;27;20082;-76
2021/12/17 13:10:45;;;;;;;26.17;11.23;;;2.80;99.90;;;;;;5048102;27;20390;-75
2021/12/17 13:13:28;;;;;;;24.60;10.07;;;2.80;99.90;;;;;;5043041;27;20459;-75
2021/12/17 13:21:34;;;;;;;23.48;9.43;;;2.70;99.90;;;;;;5043048;27;20164;-75
2021/12/17 13:24:24;;;;;;;18.55;9.43;;;2.80;99.90;;;;;;5045036;27;20025;-75
2021/12/17 13:27:00;;;;;;;21.13;9.43;;;2.70;99.90;;;;;;5053734;27;20013;-75
2021/12/17 13:29:33;;;;;;;12.80;8.75;;;2.70;99.90;;;;;;5066555;27;20025;-75
2021/12/17 13:32:02;;;;;;;19.92;9.15;;;2.70;99.90;;;;;;5069187;27;20020;-76
2021/12/17 13:34:42;;;;;;;17.67;9.45;;;2.70;99.90;;;;;;5067628;27;20015;-75
2021/12/17 13:37:08;;;;;;;21.73;9.38;;;2.70;99.90;;;;;;5056175;27;20021;-75
2021/12/17 13:39:33;;;;;;;14.80;8.02;;;2.70;99.90;;;;;;5049377;27;20052;-75
2021/12/17 13:42:01;;;;;;;19.73;9.60;;;2.70;99.90;;;;;;5044266;27;20055;-75
2021/12/17 13:44:30;;;;;;;23.60;9.25;;;2.70;99.90;;;;;;5038421;28;20033;-75
2021/12/17 13:47:32;;;;;;;21.35;9.75;;;2.70;99.90;;;;;;5035568;28;20487;-75
2021/12/17 13:50:19;;;;;;;17.10;9.88;;;2.70;99.90;;;;;;5069642;28;20529;-75
2021/12/17 13:53:05;;;;;;;21.98;10.38;;;2.70;99.90;;;;;;5038940;28;20029;-75
2021/12/17 13:55:45;;;;;;;23.83;9.73;;;2.70;99.90;;;;;;5038246;28;20079;-75
2021/12/17 13:58:16;;;;;;;19.20;10.10;;;2.70;99.90;;;;;;5033874;28;20136;-76
2021/12/17 14:00:46;;;;;;;20.55;9.40;;;2.70;99.90;;;;;;5031184;28;20033;-75
2021/12/17 14:03:16;;;;;;;20.30;9.95;;;2.60;99.90;;;;;;5037266;28;20013;-76
2021/12/17 14:05:51;;;;;;;20.50;10.05;;;2.60;99.90;;;;;;5037405;28;20091;-75
2021/12/17 14:08:20;;;;;;;24.40;12.27;;;2.60;99.90;;;;;;5031923;28;20128;-75
2021/12/17 14:10:48;;;;;;;19.23;9.55;;;2.60;99.90;;;;;;5034781;28;20024;-75
2021/12/17 14:13:21;;;;;;;25.15;10.80;;;2.60;99.90;;;;;;5032214;28;20031;-75
2021/12/17 14:15:48;;;;;;;21.73;10.85;;;2.60;99.90;;;;;;5034068;28;20078;-75
2021/12/17 14:18:23;;;;;;;22.77;10.15;;;2.60;99.90;;;;;;5042533;27;20013;-76
2021/12/17 14:20:48;;;;;;;28.42;10.52;;;2.60;99.90;;;;;;5032877;28;20029;-75
2021/12/17 14:23:40;;;;;;;20.05;10.80;;;2.60;99.90;;;;;;5037751;28;20017;-75
2021/12/17 14:26:08;;;;;;;28.15;11.00;;;2.60;99.90;;;;;;5042904;27;20124;-75
2021/12/17 14:28:40;;;;;;;24.73;10.60;;;2.60;99.90;;;;;;5034500;27;20078;-75
2021/12/17 14:31:16;;;;;;;27.73;12.07;;;2.60;99.90;;;;;;5036189;28;20108;-76
2021/12/17 14:33:50;;;;;;;31.38;14.57;;;2.60;99.90;;;;;;5032508;28;20036;-75
2021/12/17 14:36:16;;;;;;;27.02;13.55;;;2.60;99.90;;;;;;5030198;28;20071;-75
2021/12/17 14:38:52;;;;;;;25.13;11.95;;;2.60;99.90;;;;;;5036357;28;20515;-75
2021/12/17 14:41:23;;;;;;;21.88;11.10;;;2.60;99.90;;;;;;5037783;28;20048;-75
2021/12/17 14:43:56;;;;;;;26.50;13.68;;;2.60;99.90;;;;;;5037358;28;20443;-75
2021/12/17 14:46:32;;;;;;;25.83;14.13;;;2.60;99.90;;;;;;5039801;27;20036;-75
2021/12/17 15:02:47;;;;;;;40.10;26.35;;;2.60;99.90;;;;;;5067263;27;20086;-75
2021/12/17 15:05:14;;;;;;;46.88;32.33;;;2.60;99.90;;;;;;5042563;27;20021;-75
2021/12/17 15:07:40;;;;;;;41.65;21.80;;;2.60;99.90;;;;;;5045695;27;20226;-75
2021/12/17 15:10:08;;;;;;;94.43;74.97;;;2.60;99.90;;;;;;5044939;27;20029;-75
2021/12/17 15:15:10;;;;;;;52.85;24.48;;;2.60;99.90;;;;;;5052935;27;20534;-75
2021/12/17 15:17:36;;;;;;;95.85;74.20;;;2.50;99.90;;;;;;5054839;27;20030;-75
2021/12/17 15:20:03;;;;;;;200.55;179.55;;;2.50;99.90;;;;;;5054922;27;20490;-75
2021/12/17 15:22:28;;;;;;;45.92;30.92;;;2.50;99.90;;;;;;5060695;27;20061;-75
2021/12/17 15:24:54;;;;;;;102.65;91.40;;;2.50;99.90;;;;;;5037727;27;20482;-75
2021/12/17 15:27:20;;;;;;;77.65;59.75;;;2.60;99.90;;;;;;5037022;27;20100;-75
2021/12/17 15:29:46;;;;;;;79.32;52.55;;;2.50;99.90;;;;;;5038926;27;20044;-75
2021/12/17 15:32:12;;;;;;;29.88;15.98;;;2.50;99.90;;;;;;5038922;27;20094;-75
2021/12/17 15:34:37;;;;;;;38.47;18.88;;;2.50;99.90;;;;;;5035615;27;20053;-75
2021/12/17 15:37:03;;;;;;;32.58;17.45;;;2.50;99.90;;;;;;5035431;27;20721;-75
2021/12/17 15:39:29;;;;;;;104.70;89.45;;;2.60;99.90;;;;;;5038162;27;20542;-75
2021/12/17 15:41:55;;;;;;;34.90;18.65;;;2.50;99.90;;;;;;5040648;27;20025;-75
2021/12/17 15:44:21;;;;;;;72.38;54.38;;;2.50;99.90;;;;;;5034861;28;20030;-75
2021/12/17 15:46:47;;;;;;;42.83;18.70;;;2.50;99.90;;;;;;5039303;28;20046;-75
2021/12/17 15:49:13;;;;;;;46.58;23.02;;;2.60;99.90;;;;;;5039361;28;20547;-75
2021/12/17 15:51:39;;;;;;;33.42;17.08;;;2.50;99.90;;;;;;5040941;28;20029;-76
2021/12/17 15:54:05;;;;;;;86.65;70.78;;;2.50;99.90;;;;;;5038142;28;20505;-75
2021/12/17 15:56:32;;;;;;;51.13;30.90;;;2.60;99.90;;;;;;5038720;28;20018;-75
2021/12/17 15:59:01;;;;;;;40.05;18.23;;;2.60;99.90;;;;;;5040716;28;20081;-75
2021/12/17 16:01:27;;;;;;;48.33;23.27;;;2.50;99.90;;;;;;5041774;28;20513;-75
2021/12/17 16:03:52;;;;;;;37.28;17.70;;;2.50;99.90;;;;;;5037191;28;20029;-75
2021/12/17 16:06:19;;;;;;;46.35;26.38;;;2.50;99.90;;;;;;5039291;28;20025;-75
2021/12/17 16:08:49;;;;;;;44.20;18.58;;;2.50;99.90;;;;;;5033990;28;20030;-75
2021/12/17 16:22:05;;;;;;;44.38;22.95;;;2.60;99.90;;;;;;5038778;28;20112;-75